sensor_id;sensor_type;location;lat;lon;timestamp;P1;durP1;ratioP1;P2;durP2;ratioP2
59922;SDS011;45778;51.142;3.732;2022-08-11T00:01:23;10.18;;;3.90;;
59922;SDS011;45778;51.142;3.732;2022-08-11T00:03:58;4.82;;;3.72;;
59922;SDS011;45778;51.142;3.732;2022-08-11T00:06:34;7.18;;;3.85;;
59922;SDS011;45778;51.142;3.732;2022-08-11T00:09:03;5.13;;;4.20;;
59922;SDS011;45778;51.142;3.732;2022-08-11T00:11:34;7.72;;;4.05;;
59922;SDS011;45778;51.142;3.732;2022-08-11T00:14:12;6.63;;;3.65;;
59922;SDS011;45778;51.142;3.732;2022-08-11T00:17:00;4.93;;;3.95;;
59922;SDS011;45778;51.142;3.732;2022-08-11T00:19:34;5.47;;;4.10;;
59922;SDS011;45778;51.142;3.732;2022-08-11T00:22:03;7.50;;;4.60;;
59922;SDS011;45778;51.142;3.732;2022-08-11T00:24:31;6.63;;;4.10;;
59922;SDS011;45778;51.142;3.732;2022-08-11T00:26:58;6.63;;;4.07;;
59922;SDS011;45778;51.142;3.732;2022-08-11T00:29:25;7.50;;;4.22;;
59922;SDS011;45778;51.142;3.732;2022-08-11T00:31:52;5.07;;;4.03;;
59922;SDS011;45778;51.142;3.732;2022-08-11T00:34:24;7.88;;;4.03;;
59922;SDS011;45778;51.142;3.732;2022-08-11T00:36:52;7.15;;;3.60;;
59922;SDS011;45778;51.142;3.732;2022-08-11T00:39:24;7.82;;;4.22;;
59922;SDS011;45778;51.142;3.732;2022-08-11T00:41:58;6.47;;;4.15;;
59922;SDS011;45778;51.142;3.732;2022-08-11T00:52:36;6.70;;;4.25;;
59922;SDS011;45778;51.142;3.732;2022-08-11T01:47:58;6.40;;;4.35;;
59922;SDS011;45778;51.142;3.732;2022-08-11T01:53:37;5.28;;;4.32;;
59922;SDS011;45778;51.142;3.732;2022-08-11T02:04:36;6.75;;;4.18;;
59922;SDS011;45778;51.142;3.732;2022-08-11T02:10:32;5.00;;;3.78;;
59922;SDS011;45778;51.142;3.732;2022-08-11T02:25:37;6.13;;;4.28;;
59922;SDS011;45778;51.142;3.732;2022-08-11T02:33:47;5.28;;;3.85;;
59922;SDS011;45778;51.142;3.732;2022-08-11T02:36:23;6.47;;;4.30;;
59922;SDS011;45778;51.142;3.732;2022-08-11T02:39:08;6.97;;;3.97;;
59922;SDS011;45778;51.142;3.732;2022-08-11T02:44:36;10.70;;;4.38;;
59922;SDS011;45778;51.142;3.732;2022-08-11T02:50:00;11.40;;;4.85;;
59922;SDS011;45778;51.142;3.732;2022-08-11T02:52:42;6.35;;;4.53;;
59922;SDS011;45778;51.142;3.732;2022-08-11T02:55:26;9.25;;;4.88;;
59922;SDS011;45778;51.142;3.732;2022-08-11T03:00:59;12.18;;;4.90;;
59922;SDS011;45778;51.142;3.732;2022-08-11T03:03:29;7.57;;;4.35;;
59922;SDS011;45778;51.142;3.732;2022-08-11T03:14:54;8.38;;;4.93;;
59922;SDS011;45778;51.142;3.732;2022-08-11T03:17:48;9.25;;;4.97;;
59922;SDS011;45778;51.142;3.732;2022-08-11T03:20:30;7.95;;;4.82;;
59922;SDS011;45778;51.142;3.732;2022-08-11T03:25:44;7.13;;;5.00;;
59922;SDS011;45778;51.142;3.732;2022-08-11T03:28:26;7.68;;;5.10;;
59922;SDS011;45778;51.142;3.732;2022-08-11T03:33:29;9.40;;;4.72;;
59922;SDS011;45778;51.142;3.732;2022-08-11T03:36:27;9.70;;;4.90;;
59922;SDS011;45778;51.142;3.732;2022-08-11T03:44:58;6.65;;;4.50;;
59922;SDS011;45778;51.142;3.732;2022-08-11T03:58:47;12.10;;;5.38;;
59922;SDS011;45778;51.142;3.732;2022-08-11T04:04:28;8.25;;;5.38;;
59922;SDS011;45778;51.142;3.732;2022-08-11T04:35:16;14.30;;;5.43;;
59922;SDS011;45778;51.142;3.732;2022-08-11T04:58:13;9.43;;;5.25;;
59922;SDS011;45778;51.142;3.732;2022-08-11T05:07:45;16.45;;;6.45;;
59922;SDS011;45778;51.142;3.732;2022-08-11T05:13:20;13.23;;;5.82;;
59922;SDS011;45778;51.142;3.732;2022-08-11T05:19:02;12.07;;;6.05;;
59922;SDS011;45778;51.142;3.732;2022-08-11T05:21:52;16.60;;;6.43;;
59922;SDS011;45778;51.142;3.732;2022-08-11T05:30:55;21.02;;;6.90;;
59922;SDS011;45778;51.142;3.732;2022-08-11T05:33:56;21.25;;;6.65;;
59922;SDS011;45778;51.142;3.732;2022-08-11T05:39:21;13.45;;;4.65;;
59922;SDS011;45778;51.142;3.732;2022-08-11T05:42:09;8.83;;;4.70;;
59922;SDS011;45778;51.142;3.732;2022-08-11T05:44:56;9.98;;;4.25;;
59922;SDS011;45778;51.142;3.732;2022-08-11T05:47:47;10.40;;;4.75;;
59922;SDS011;45778;51.142;3.732;2022-08-11T05:50:33;10.85;;;5.07;;
59922;SDS011;45778;51.142;3.732;2022-08-11T05:53:18;10.45;;;5.32;;
59922;SDS011;45778;51.142;3.732;2022-08-11T05:56:06;15.52;;;5.97;;
59922;SDS011;45778;51.142;3.732;2022-08-11T05:58:51;13.52;;;5.63;;
59922;SDS011;45778;51.142;3.732;2022-08-11T06:01:25;13.27;;;5.40;;
59922;SDS011;45778;51.142;3.732;2022-08-11T06:03:56;9.90;;;4.68;;
59922;SDS011;45778;51.142;3.732;2022-08-11T06:06:47;16.30;;;5.88;;
59922;SDS011;45778;51.142;3.732;2022-08-11T06:12:21;10.95;;;4.95;;
59922;SDS011;45778;51.142;3.732;2022-08-11T06:14:49;10.82;;;4.97;;
59922;SDS011;45778;51.142;3.732;2022-08-11T06:17:42;6.75;;;5.25;;
59922;SDS011;45778;51.142;3.732;2022-08-11T06:20:09;15.15;;;6.68;;
59922;SDS011;45778;51.142;3.732;2022-08-11T06:22:37;6.63;;;4.63;;
59922;SDS011;45778;51.142;3.732;2022-08-11T06:25:06;9.23;;;5.70;;
59922;SDS011;45778;51.142;3.732;2022-08-11T06:27:34;10.63;;;5.50;;
59922;SDS011;45778;51.142;3.732;2022-08-11T06:30:03;13.52;;;5.10;;
59922;SDS011;45778;51.142;3.732;2022-08-11T06:32:38;8.50;;;5.65;;
59922;SDS011;45778;51.142;3.732;2022-08-11T06:43:50;16.42;;;6.13;;
59922;SDS011;45778;51.142;3.732;2022-08-11T06:46:34;19.38;;;6.68;;
59922;SDS011;45778;51.142;3.732;2022-08-11T06:49:05;19.42;;;7.07;;
59922;SDS011;45778;51.142;3.732;2022-08-11T06:51:55;15.38;;;6.22;;
59922;SDS011;45778;51.142;3.732;2022-08-11T06:54:33;12.45;;;5.80;;
59922;SDS011;45778;51.142;3.732;2022-08-11T06:57:00;11.70;;;6.00;;
59922;SDS011;45778;51.142;3.732;2022-08-11T06:59:46;13.25;;;6.45;;
59922;SDS011;45778;51.142;3.732;2022-08-11T07:02:32;17.02;;;6.43;;
59922;SDS011;45778;51.142;3.732;2022-08-11T07:07:58;12.13;;;6.25;;
59922;SDS011;45778;51.142;3.732;2022-08-11T07:11:19;9.40;;;5.50;;
59922;SDS011;45778;51.142;3.732;2022-08-11T07:14:29;9.73;;;5.88;;
59922;SDS011;45778;51.142;3.732;2022-08-11T07:17:16;9.60;;;5.78;;
59922;SDS011;45778;51.142;3.732;2022-08-11T07:19:46;10.90;;;5.80;;
59922;SDS011;45778;51.142;3.732;2022-08-11T07:22:37;9.90;;;5.50;;
59922;SDS011;45778;51.142;3.732;2022-08-11T07:25:34;14.93;;;6.10;;
59922;SDS011;45778;51.142;3.732;2022-08-11T07:28:26;12.63;;;6.32;;
59922;SDS011;45778;51.142;3.732;2022-08-11T07:31:13;25.00;;;6.30;;
59922;SDS011;45778;51.142;3.732;2022-08-11T07:33:46;13.90;;;6.28;;
59922;SDS011;45778;51.142;3.732;2022-08-11T07:36:15;15.20;;;6.25;;
59922;SDS011;45778;51.142;3.732;2022-08-11T07:38:43;10.52;;;5.35;;
59922;SDS011;45778;51.142;3.732;2022-08-11T07:41:19;16.55;;;5.18;;
59922;SDS011;45778;51.142;3.732;2022-08-11T07:43:49;10.95;;;5.80;;
59922;SDS011;45778;51.142;3.732;2022-08-11T07:46:17;10.70;;;5.30;;
59922;SDS011;45778;51.142;3.732;2022-08-11T07:49:03;8.68;;;5.32;;
59922;SDS011;45778;51.142;3.732;2022-08-11T07:51:51;10.85;;;5.10;;
59922;SDS011;45778;51.142;3.732;2022-08-11T07:54:37;13.77;;;5.00;;
59922;SDS011;45778;51.142;3.732;2022-08-11T07:57:04;7.88;;;4.75;;
59922;SDS011;45778;51.142;3.732;2022-08-11T07:59:51;12.52;;;4.72;;
59922;SDS011;45778;51.142;3.732;2022-08-11T08:02:36;13.30;;;4.40;;
59922;SDS011;45778;51.142;3.732;2022-08-11T08:05:22;9.70;;;4.50;;
59922;SDS011;45778;51.142;3.732;2022-08-11T08:08:07;7.18;;;4.30;;
59922;SDS011;45778;51.142;3.732;2022-08-11T08:10:53;12.45;;;4.05;;
59922;SDS011;45778;51.142;3.732;2022-08-11T08:13:38;7.93;;;3.70;;
59922;SDS011;45778;51.142;3.732;2022-08-11T08:16:23;12.98;;;4.45;;
59922;SDS011;45778;51.142;3.732;2022-08-11T08:19:10;13.40;;;4.07;;
59922;SDS011;45778;51.142;3.732;2022-08-11T08:21:38;11.05;;;4.15;;
59922;SDS011;45778;51.142;3.732;2022-08-11T08:24:05;11.77;;;4.22;;
59922;SDS011;45778;51.142;3.732;2022-08-11T08:26:31;9.48;;;4.10;;
59922;SDS011;45778;51.142;3.732;2022-08-11T08:29:16;9.25;;;3.80;;
59922;SDS011;45778;51.142;3.732;2022-08-11T08:32:02;8.82;;;3.83;;
59922;SDS011;45778;51.142;3.732;2022-08-11T08:34:28;11.60;;;3.40;;
59922;SDS011;45778;51.142;3.732;2022-08-11T08:36:55;7.57;;;2.90;;
59922;SDS011;45778;51.142;3.732;2022-08-11T08:39:21;10.35;;;3.53;;
59922;SDS011;45778;51.142;3.732;2022-08-11T08:41:53;8.70;;;3.35;;
59922;SDS011;45778;51.142;3.732;2022-08-11T08:44:21;10.00;;;3.00;;
59922;SDS011;45778;51.142;3.732;2022-08-11T08:46:49;11.13;;;2.97;;
59922;SDS011;45778;51.142;3.732;2022-08-11T08:49:21;7.70;;;3.20;;
59922;SDS011;45778;51.142;3.732;2022-08-11T08:51:51;7.10;;;3.08;;
59922;SDS011;45778;51.142;3.732;2022-08-11T08:54:30;10.20;;;4.00;;
59922;SDS011;45778;51.142;3.732;2022-08-11T08:56:59;6.15;;;3.40;;
59922;SDS011;45778;51.142;3.732;2022-08-11T08:59:28;10.95;;;4.38;;
59922;SDS011;45778;51.142;3.732;2022-08-11T09:02:03;21.67;;;5.82;;
59922;SDS011;45778;51.142;3.732;2022-08-11T09:04:30;27.33;;;6.43;;
59922;SDS011;45778;51.142;3.732;2022-08-11T09:07:02;15.90;;;5.80;;
59922;SDS011;45778;51.142;3.732;2022-08-11T09:09:33;18.95;;;6.55;;
59922;SDS011;45778;51.142;3.732;2022-08-11T09:12:01;14.02;;;5.95;;
59922;SDS011;45778;51.142;3.732;2022-08-11T09:14:33;28.05;;;7.53;;
59922;SDS011;45778;51.142;3.732;2022-08-11T09:17:20;20.02;;;7.03;;
59922;SDS011;45778;51.142;3.732;2022-08-11T09:19:47;30.38;;;7.57;;
59922;SDS011;45778;51.142;3.732;2022-08-11T09:22:23;21.75;;;6.50;;
59922;SDS011;45778;51.142;3.732;2022-08-11T09:28:01;12.57;;;6.35;;
59922;SDS011;45778;51.142;3.732;2022-08-11T09:30:29;12.07;;;5.57;;
59922;SDS011;45778;51.142;3.732;2022-08-11T09:32:56;20.42;;;4.78;;
59922;SDS011;45778;51.142;3.732;2022-08-11T09:35:26;12.10;;;4.07;;
59922;SDS011;45778;51.142;3.732;2022-08-11T09:37:54;10.35;;;3.65;;
59922;SDS011;45778;51.142;3.732;2022-08-11T09:40:41;7.55;;;2.67;;
59922;SDS011;45778;51.142;3.732;2022-08-11T09:43:10;8.90;;;2.90;;
59922;SDS011;45778;51.142;3.732;2022-08-11T09:45:58;14.95;;;2.97;;
59922;SDS011;45778;51.142;3.732;2022-08-11T09:48:25;14.90;;;2.80;;
59922;SDS011;45778;51.142;3.732;2022-08-11T09:50:56;7.80;;;2.85;;
59922;SDS011;45778;51.142;3.732;2022-08-11T09:53:24;6.10;;;2.38;;
59922;SDS011;45778;51.142;3.732;2022-08-11T09:55:51;5.85;;;2.58;;
59922;SDS011;45778;51.142;3.732;2022-08-11T09:58:17;8.05;;;2.63;;
59922;SDS011;45778;51.142;3.732;2022-08-11T10:00:44;12.18;;;2.47;;
59922;SDS011;45778;51.142;3.732;2022-08-11T10:03:14;6.57;;;2.22;;
59922;SDS011;45778;51.142;3.732;2022-08-11T10:05:49;8.52;;;2.53;;
59922;SDS011;45778;51.142;3.732;2022-08-11T10:08:39;8.88;;;2.75;;
59922;SDS011;45778;51.142;3.732;2022-08-11T10:11:08;10.52;;;2.45;;
59922;SDS011;45778;51.142;3.732;2022-08-11T10:13:38;9.48;;;2.50;;
59922;SDS011;45778;51.142;3.732;2022-08-11T10:16:27;5.10;;;2.50;;
59922;SDS011;45778;51.142;3.732;2022-08-11T10:18:58;9.20;;;2.13;;
59922;SDS011;45778;51.142;3.732;2022-08-11T10:21:28;6.72;;;2.35;;
59922;SDS011;45778;51.142;3.732;2022-08-11T10:23:55;5.82;;;1.92;;
59922;SDS011;45778;51.142;3.732;2022-08-11T10:26:42;7.30;;;2.38;;
59922;SDS011;45778;51.142;3.732;2022-08-11T10:29:18;4.28;;;2.33;;
59922;SDS011;45778;51.142;3.732;2022-08-11T10:32:11;5.95;;;2.28;;
59922;SDS011;45778;51.142;3.732;2022-08-11T10:34:57;5.95;;;2.30;;
59922;SDS011;45778;51.142;3.732;2022-08-11T10:37:25;10.98;;;2.92;;
59922;SDS011;45778;51.142;3.732;2022-08-11T10:39:51;10.20;;;2.50;;
59922;SDS011;45778;51.142;3.732;2022-08-11T10:42:20;4.90;;;1.90;;
59922;SDS011;45778;51.142;3.732;2022-08-11T10:45:05;10.02;;;2.50;;
59922;SDS011;45778;51.142;3.732;2022-08-11T10:47:52;8.30;;;2.22;;
59922;SDS011;45778;51.142;3.732;2022-08-11T10:50:20;7.78;;;2.50;;
59922;SDS011;45778;51.142;3.732;2022-08-11T10:53:05;7.32;;;2.50;;
59922;SDS011;45778;51.142;3.732;2022-08-11T10:55:51;8.65;;;2.58;;
59922;SDS011;45778;51.142;3.732;2022-08-11T10:58:36;8.80;;;2.67;;
59922;SDS011;45778;51.142;3.732;2022-08-11T11:01:26;8.40;;;2.20;;
59922;SDS011;45778;51.142;3.732;2022-08-11T11:03:57;6.22;;;2.63;;
59922;SDS011;45778;51.142;3.732;2022-08-11T11:09:29;8.30;;;2.38;;
59922;SDS011;45778;51.142;3.732;2022-08-11T11:12:08;8.63;;;2.35;;
59922;SDS011;45778;51.142;3.732;2022-08-11T11:14:55;5.32;;;2.00;;
59922;SDS011;45778;51.142;3.732;2022-08-11T11:17:44;2.75;;;2.30;;
59922;SDS011;45778;51.142;3.732;2022-08-11T11:28:45;11.88;;;2.72;;
59922;SDS011;45778;51.142;3.732;2022-08-11T11:37:14;4.75;;;2.30;;
59922;SDS011;45778;51.142;3.732;2022-08-11T11:39:41;7.28;;;2.65;;
59922;SDS011;45778;51.142;3.732;2022-08-11T11:42:08;5.05;;;2.35;;
59922;SDS011;45778;51.142;3.732;2022-08-11T11:44:37;8.90;;;2.42;;
59922;SDS011;45778;51.142;3.732;2022-08-11T11:47:04;5.13;;;2.67;;
59922;SDS011;45778;51.142;3.732;2022-08-11T11:49:31;5.78;;;2.55;;
59922;SDS011;45778;51.142;3.732;2022-08-11T11:52:03;4.93;;;2.50;;
59922;SDS011;45778;51.142;3.732;2022-08-11T11:54:31;10.30;;;2.50;;
59922;SDS011;45778;51.142;3.732;2022-08-11T11:57:00;9.25;;;2.78;;
59922;SDS011;45778;51.142;3.732;2022-08-11T11:59:50;15.38;;;3.28;;
59922;SDS011;45778;51.142;3.732;2022-08-11T12:02:36;9.82;;;2.60;;
59922;SDS011;45778;51.142;3.732;2022-08-11T12:05:04;6.68;;;2.30;;
59922;SDS011;45778;51.142;3.732;2022-08-11T12:07:31;8.25;;;3.30;;
59922;SDS011;45778;51.142;3.732;2022-08-11T12:10:16;5.03;;;2.65;;
59922;SDS011;45778;51.142;3.732;2022-08-11T12:12:43;6.10;;;2.88;;
59922;SDS011;45778;51.142;3.732;2022-08-11T12:15:28;7.78;;;2.88;;
59922;SDS011;45778;51.142;3.732;2022-08-11T12:17:55;4.63;;;2.20;;
59922;SDS011;45778;51.142;3.732;2022-08-11T12:20:21;5.55;;;3.03;;
59922;SDS011;45778;51.142;3.732;2022-08-11T12:22:48;12.10;;;3.05;;
59922;SDS011;45778;51.142;3.732;2022-08-11T12:25:32;3.72;;;2.60;;
59922;SDS011;45778;51.142;3.732;2022-08-11T12:28:18;5.93;;;2.83;;
59922;SDS011;45778;51.142;3.732;2022-08-11T12:30:46;6.22;;;2.72;;
59922;SDS011;45778;51.142;3.732;2022-08-11T12:33:14;4.40;;;2.45;;
59922;SDS011;45778;51.142;3.732;2022-08-11T12:35:40;3.30;;;3.00;;
59922;SDS011;45778;51.142;3.732;2022-08-11T12:38:07;6.28;;;2.97;;
59922;SDS011;45778;51.142;3.732;2022-08-11T12:40:34;9.63;;;3.22;;
59922;SDS011;45778;51.142;3.732;2022-08-11T12:43:21;7.15;;;2.60;;
59922;SDS011;45778;51.142;3.732;2022-08-11T12:46:11;3.30;;;2.92;;
59922;SDS011;45778;51.142;3.732;2022-08-11T12:48:46;7.80;;;3.22;;
59922;SDS011;45778;51.142;3.732;2022-08-11T12:51:34;7.20;;;2.95;;
59922;SDS011;45778;51.142;3.732;2022-08-11T12:57:28;8.35;;;2.78;;
59922;SDS011;45778;51.142;3.732;2022-08-11T13:00:13;9.23;;;3.30;;
59922;SDS011;45778;51.142;3.732;2022-08-11T13:02:59;8.65;;;3.85;;
59922;SDS011;45778;51.142;3.732;2022-08-11T13:05:45;4.68;;;3.40;;
59922;SDS011;45778;51.142;3.732;2022-08-11T13:08:12;7.60;;;4.20;;
59922;SDS011;45778;51.142;3.732;2022-08-11T13:10:42;10.30;;;5.45;;
59922;SDS011;45778;51.142;3.732;2022-08-11T13:13:27;7.47;;;3.28;;
59922;SDS011;45778;51.142;3.732;2022-08-11T13:15:53;11.77;;;3.50;;
59922;SDS011;45778;51.142;3.732;2022-08-11T13:18:20;8.52;;;3.60;;
59922;SDS011;45778;51.142;3.732;2022-08-11T13:20:56;4.40;;;3.40;;
59922;SDS011;45778;51.142;3.732;2022-08-11T13:23:23;6.95;;;3.08;;
59922;SDS011;45778;51.142;3.732;2022-08-11T13:25:51;6.50;;;3.40;;
59922;SDS011;45778;51.142;3.732;2022-08-11T13:28:19;7.03;;;3.13;;
59922;SDS011;45778;51.142;3.732;2022-08-11T13:30:46;11.38;;;3.42;;
59922;SDS011;45778;51.142;3.732;2022-08-11T13:33:32;5.88;;;3.22;;
59922;SDS011;45778;51.142;3.732;2022-08-11T13:35:59;5.35;;;4.03;;
59922;SDS011;45778;51.142;3.732;2022-08-11T13:38:26;6.93;;;3.38;;
59922;SDS011;45778;51.142;3.732;2022-08-11T13:40:52;8.35;;;3.38;;
59922;SDS011;45778;51.142;3.732;2022-08-11T13:43:20;6.03;;;3.10;;
59922;SDS011;45778;51.142;3.732;2022-08-11T13:45:47;6.95;;;3.05;;
59922;SDS011;45778;51.142;3.732;2022-08-11T13:48:14;7.03;;;3.40;;
59922;SDS011;45778;51.142;3.732;2022-08-11T13:50:41;9.43;;;3.20;;
59922;SDS011;45778;51.142;3.732;2022-08-11T13:53:26;5.47;;;3.28;;
59922;SDS011;45778;51.142;3.732;2022-08-11T13:55:54;4.07;;;3.03;;
59922;SDS011;45778;51.142;3.732;2022-08-11T13:58:23;8.38;;;3.45;;
59922;SDS011;45778;51.142;3.732;2022-08-11T14:00:50;6.88;;;3.38;;
59922;SDS011;45778;51.142;3.732;2022-08-11T14:03:22;3.30;;;3.00;;
59922;SDS011;45778;51.142;3.732;2022-08-11T14:05:51;5.72;;;3.08;;
59922;SDS011;45778;51.142;3.732;2022-08-11T14:08:23;7.40;;;3.70;;
59922;SDS011;45778;51.142;3.732;2022-08-11T14:10:58;9.68;;;3.40;;
59922;SDS011;45778;51.142;3.732;2022-08-11T14:13:44;3.60;;;3.03;;
59922;SDS011;45778;51.142;3.732;2022-08-11T14:16:18;3.83;;;3.05;;
59922;SDS011;45778;51.142;3.732;2022-08-11T14:18:51;4.97;;;3.20;;
59922;SDS011;45778;51.142;3.732;2022-08-11T14:21:20;6.10;;;3.70;;
59922;SDS011;45778;51.142;3.732;2022-08-11T14:24:07;7.10;;;3.15;;
59922;SDS011;45778;51.142;3.732;2022-08-11T14:26:35;9.73;;;3.80;;
59922;SDS011;45778;51.142;3.732;2022-08-11T14:31:44;3.50;;;3.08;;
59922;SDS011;45778;51.142;3.732;2022-08-11T14:34:13;4.28;;;3.40;;
59922;SDS011;45778;51.142;3.732;2022-08-11T14:36:43;3.97;;;3.53;;
59922;SDS011;45778;51.142;3.732;2022-08-11T14:39:14;4.38;;;3.75;;
59922;SDS011;45778;51.142;3.732;2022-08-11T14:41:43;5.35;;;3.40;;
59922;SDS011;45778;51.142;3.732;2022-08-11T14:44:48;6.03;;;3.83;;
59922;SDS011;45778;51.142;3.732;2022-08-11T14:47:35;4.72;;;3.53;;
59922;SDS011;45778;51.142;3.732;2022-08-11T14:50:04;7.43;;;4.30;;
59922;SDS011;45778;51.142;3.732;2022-08-11T14:52:32;6.10;;;3.47;;
59922;SDS011;45778;51.142;3.732;2022-08-11T14:55:01;7.25;;;3.60;;
59922;SDS011;45778;51.142;3.732;2022-08-11T14:57:46;3.42;;;3.13;;
59922;SDS011;45778;51.142;3.732;2022-08-11T15:00:13;3.80;;;3.08;;
59922;SDS011;45778;51.142;3.732;2022-08-11T15:02:42;7.22;;;3.00;;
59922;SDS011;45778;51.142;3.732;2022-08-11T15:05:30;8.80;;;3.25;;
59922;SDS011;45778;51.142;3.732;2022-08-11T15:07:56;4.57;;;2.92;;
59922;SDS011;45778;51.142;3.732;2022-08-11T15:10:23;3.88;;;3.10;;
59922;SDS011;45778;51.142;3.732;2022-08-11T15:12:49;7.38;;;3.55;;
59922;SDS011;45778;51.142;3.732;2022-08-11T15:15:16;8.88;;;3.50;;
59922;SDS011;45778;51.142;3.732;2022-08-11T15:18:04;7.30;;;3.22;;
59922;SDS011;45778;51.142;3.732;2022-08-11T15:20:32;4.60;;;3.40;;
59922;SDS011;45778;51.142;3.732;2022-08-11T15:23:16;4.28;;;3.60;;
59922;SDS011;45778;51.142;3.732;2022-08-11T15:26:06;7.95;;;4.00;;
59922;SDS011;45778;51.142;3.732;2022-08-11T15:28:39;5.45;;;3.40;;
59922;SDS011;45778;51.142;3.732;2022-08-11T15:31:29;5.45;;;3.78;;
59922;SDS011;45778;51.142;3.732;2022-08-11T15:34:16;7.90;;;3.72;;
59922;SDS011;45778;51.142;3.732;2022-08-11T15:37:03;10.07;;;3.30;;
59922;SDS011;45778;51.142;3.732;2022-08-11T15:39:51;7.10;;;3.95;;
59922;SDS011;45778;51.142;3.732;2022-08-11T15:45:42;4.07;;;3.08;;
59922;SDS011;45778;51.142;3.732;2022-08-11T15:50:57;7.60;;;3.60;;
59922;SDS011;45778;51.142;3.732;2022-08-11T15:53:50;4.30;;;3.92;;
59922;SDS011;45778;51.142;3.732;2022-08-11T15:58:45;7.72;;;4.50;;
59922;SDS011;45778;51.142;3.732;2022-08-11T16:01:31;6.90;;;4.20;;
59922;SDS011;45778;51.142;3.732;2022-08-11T16:04:21;5.82;;;4.20;;
59922;SDS011;45778;51.142;3.732;2022-08-11T16:09:21;10.00;;;4.20;;
59922;SDS011;45778;51.142;3.732;2022-08-11T16:11:53;9.00;;;3.90;;
59922;SDS011;45778;51.142;3.732;2022-08-11T16:14:23;4.63;;;3.65;;
59922;SDS011;45778;51.142;3.732;2022-08-11T16:17:09;5.93;;;3.42;;
59922;SDS011;45778;51.142;3.732;2022-08-11T16:19:39;5.25;;;3.45;;
59922;SDS011;45778;51.142;3.732;2022-08-11T16:22:09;4.57;;;2.92;;
59922;SDS011;45778;51.142;3.732;2022-08-11T16:24:37;3.50;;;3.20;;
59922;SDS011;45778;51.142;3.732;2022-08-11T16:27:09;11.30;;;3.50;;
59922;SDS011;45778;51.142;3.732;2022-08-11T16:29:36;6.18;;;3.58;;
59922;SDS011;45778;51.142;3.732;2022-08-11T16:32:07;7.47;;;3.72;;
59922;SDS011;45778;51.142;3.732;2022-08-11T16:34:43;4.95;;;3.13;;
59922;SDS011;45778;51.142;3.732;2022-08-11T16:37:30;5.20;;;3.25;;
59922;SDS011;45778;51.142;3.732;2022-08-11T16:40:17;3.58;;;3.28;;
59922;SDS011;45778;51.142;3.732;2022-08-11T16:42:45;5.05;;;3.30;;
59922;SDS011;45778;51.142;3.732;2022-08-11T16:45:31;4.25;;;3.30;;
59922;SDS011;45778;51.142;3.732;2022-08-11T16:48:17;8.23;;;3.40;;
59922;SDS011;45778;51.142;3.732;2022-08-11T16:50:44;6.38;;;3.53;;
59922;SDS011;45778;51.142;3.732;2022-08-11T16:53:10;6.95;;;3.67;;
59922;SDS011;45778;51.142;3.732;2022-08-11T16:55:36;8.60;;;3.70;;
59922;SDS011;45778;51.142;3.732;2022-08-11T16:58:02;11.98;;;3.63;;
59922;SDS011;45778;51.142;3.732;2022-08-11T17:00:49;5.25;;;3.25;;
59922;SDS011;45778;51.142;3.732;2022-08-11T17:03:15;3.90;;;3.50;;
59922;SDS011;45778;51.142;3.732;2022-08-11T17:06:01;6.47;;;3.50;;
59922;SDS011;45778;51.142;3.732;2022-08-11T17:08:50;7.10;;;3.45;;
59922;SDS011;45778;51.142;3.732;2022-08-11T17:11:45;11.68;;;3.67;;
59922;SDS011;45778;51.142;3.732;2022-08-11T17:14:40;11.55;;;3.38;;
59922;SDS011;45778;51.142;3.732;2022-08-11T17:17:13;3.95;;;3.53;;
59922;SDS011;45778;51.142;3.732;2022-08-11T17:19:49;5.05;;;3.50;;
59922;SDS011;45778;51.142;3.732;2022-08-11T17:22:18;7.80;;;3.17;;
59922;SDS011;45778;51.142;3.732;2022-08-11T17:25:04;8.43;;;3.95;;
59922;SDS011;45778;51.142;3.732;2022-08-11T17:27:30;7.47;;;3.35;;
59922;SDS011;45778;51.142;3.732;2022-08-11T17:29:58;4.32;;;3.05;;
59922;SDS011;45778;51.142;3.732;2022-08-11T17:32:32;5.50;;;3.45;;
59922;SDS011;45778;51.142;3.732;2022-08-11T17:35:20;8.93;;;3.20;;
59922;SDS011;45778;51.142;3.732;2022-08-11T17:40:30;6.20;;;3.05;;
59922;SDS011;45778;51.142;3.732;2022-08-11T17:43:00;5.05;;;3.03;;
59922;SDS011;45778;51.142;3.732;2022-08-11T17:45:45;9.27;;;3.40;;
59922;SDS011;45778;51.142;3.732;2022-08-11T17:48:33;5.43;;;2.90;;
59922;SDS011;45778;51.142;3.732;2022-08-11T17:53:39;9.57;;;3.42;;
59922;SDS011;45778;51.142;3.732;2022-08-11T17:56:25;11.57;;;2.90;;
59922;SDS011;45778;51.142;3.732;2022-08-11T17:59:12;4.68;;;3.05;;
59922;SDS011;45778;51.142;3.732;2022-08-11T18:01:59;13.38;;;3.10;;
59922;SDS011;45778;51.142;3.732;2022-08-11T18:04:48;9.00;;;2.72;;
59922;SDS011;45778;51.142;3.732;2022-08-11T18:07:15;3.97;;;2.63;;
59922;SDS011;45778;51.142;3.732;2022-08-11T18:10:03;15.18;;;3.22;;
59922;SDS011;45778;51.142;3.732;2022-08-11T18:12:49;6.55;;;2.80;;
59922;SDS011;45778;51.142;3.732;2022-08-11T18:15:39;7.38;;;3.20;;
59922;SDS011;45778;51.142;3.732;2022-08-11T18:18:25;8.73;;;3.20;;
59922;SDS011;45778;51.142;3.732;2022-08-11T18:21:10;7.97;;;2.72;;
59922;SDS011;45778;51.142;3.732;2022-08-11T18:23:59;8.93;;;2.60;;
59922;SDS011;45778;51.142;3.732;2022-08-11T18:26:56;10.45;;;2.80;;
59922;SDS011;45778;51.142;3.732;2022-08-11T18:29:44;8.13;;;2.90;;
59922;SDS011;45778;51.142;3.732;2022-08-11T18:32:30;8.93;;;2.88;;
59922;SDS011;45778;51.142;3.732;2022-08-11T18:35:17;7.05;;;2.80;;
59922;SDS011;45778;51.142;3.732;2022-08-11T18:38:03;5.10;;;2.78;;
59922;SDS011;45778;51.142;3.732;2022-08-11T18:40:51;9.13;;;3.35;;
59922;SDS011;45778;51.142;3.732;2022-08-11T18:43:36;6.03;;;3.10;;
59922;SDS011;45778;51.142;3.732;2022-08-11T18:46:24;4.13;;;2.78;;
59922;SDS011;45778;51.142;3.732;2022-08-11T18:49:14;8.07;;;2.60;;
59922;SDS011;45778;51.142;3.732;2022-08-11T18:52:03;4.38;;;2.60;;
59922;SDS011;45778;51.142;3.732;2022-08-11T18:54:49;8.02;;;2.58;;
59922;SDS011;45778;51.142;3.732;2022-08-11T18:57:39;4.15;;;2.30;;
59922;SDS011;45778;51.142;3.732;2022-08-11T19:00:24;4.85;;;2.50;;
59922;SDS011;45778;51.142;3.732;2022-08-11T19:03:11;7.07;;;2.70;;
59922;SDS011;45778;51.142;3.732;2022-08-11T19:05:57;9.15;;;2.58;;
59922;SDS011;45778;51.142;3.732;2022-08-11T19:08:47;5.78;;;2.80;;
59922;SDS011;45778;51.142;3.732;2022-08-11T19:11:38;6.00;;;2.88;;
59922;SDS011;45778;51.142;3.732;2022-08-11T19:14:23;5.72;;;2.58;;
59922;SDS011;45778;51.142;3.732;2022-08-11T19:17:09;7.68;;;2.58;;
59922;SDS011;45778;51.142;3.732;2022-08-11T19:19:55;3.63;;;2.70;;
59922;SDS011;45778;51.142;3.732;2022-08-11T19:22:40;6.82;;;3.20;;
59922;SDS011;45778;51.142;3.732;2022-08-11T19:25:26;10.70;;;3.05;;
59922;SDS011;45778;51.142;3.732;2022-08-11T19:28:13;3.55;;;2.42;;
59922;SDS011;45778;51.142;3.732;2022-08-11T19:30:59;11.68;;;2.45;;
59922;SDS011;45778;51.142;3.732;2022-08-11T19:33:43;8.88;;;2.70;;
59922;SDS011;45778;51.142;3.732;2022-08-11T19:36:29;4.40;;;2.65;;
59922;SDS011;45778;51.142;3.732;2022-08-11T19:39:15;5.53;;;2.95;;
59922;SDS011;45778;51.142;3.732;2022-08-11T19:42:02;4.25;;;2.60;;
59922;SDS011;45778;51.142;3.732;2022-08-11T19:44:47;5.97;;;3.13;;
59922;SDS011;45778;51.142;3.732;2022-08-11T19:47:32;6.90;;;2.55;;
59922;SDS011;45778;51.142;3.732;2022-08-11T19:50:17;7.63;;;2.80;;
59922;SDS011;45778;51.142;3.732;2022-08-11T19:53:02;7.90;;;2.53;;
59922;SDS011;45778;51.142;3.732;2022-08-11T19:55:48;7.35;;;2.30;;
59922;SDS011;45778;51.142;3.732;2022-08-11T19:58:34;8.88;;;2.95;;
59922;SDS011;45778;51.142;3.732;2022-08-11T20:01:20;10.27;;;3.00;;
59922;SDS011;45778;51.142;3.732;2022-08-11T20:04:04;7.75;;;2.83;;
59922;SDS011;45778;51.142;3.732;2022-08-11T20:06:52;4.70;;;2.88;;
59922;SDS011;45778;51.142;3.732;2022-08-11T20:09:38;11.07;;;6.30;;